Terminal Aerodrome Forecast
Issued by NWS

Home | Current Version | Previous Version | Text Only | Print | Product List | Glossary Off
Versions: 1 2 3 4 5 6 7 8 9 10 11 12 13 14 15 16 17 18

291
FTUS43 KICT 241139
TAFRSL
TAF
KRSL 241139Z 2412/2512 33007KT P6SM BKN090
     FM241700 34013KT P6SM VCSH OVC050
     FM242200 34015G22KT 6SM -RA OVC035
      TEMPO 2500/2504 4SM SHRA OVC020=

USA.gov is the U.S. government's official web portal to all federal, state and local government web resources and services.